Time;durP1;ratioP1;P1;durP2;ratioP2;P2;SDS_P1;SDS_P2;PMS_P1;PMS_P2;Temp;Humidity;BMP_temperature;BMP_pressure;BME280_temperature;BME280_humidity;BME280_pressure;Samples;Min_cycle;Max_cycle;Signal;HPM_P1;HPM_P2
2022/10/09 00:00:49;;;;;;;4.82;1.40;;;7.50;99.90;;;;;;5090579;28;20461;-83
2022/10/09 00:03:17;;;;;;;5.03;1.20;;;7.60;99.90;;;;;;5074014;28;20048;-83
2022/10/09 00:05:44;;;;;;;5.90;1.30;;;7.50;99.90;;;;;;5088531;28;20044;-82
2022/10/09 00:08:11;;;;;;;5.93;1.50;;;7.50;99.90;;;;;;5110686;28;20044;-83
2022/10/09 00:10:42;;;;;;;4.55;1.23;;;8.20;99.90;;;;;;5110871;28;20127;-83
2022/10/09 00:13:09;;;;;;;7.50;1.60;;;7.40;99.90;;;;;;5094022;28;20040;-83
2022/10/09 00:15:38;;;;;;;7.55;1.80;;;7.40;99.90;;;;;;5110863;28;20028;-83
2022/10/09 00:18:06;;;;;;;3.20;1.23;;;7.40;99.90;;;;;;5110370;28;20090;-83
2022/10/09 00:20:38;;;;;;;6.75;1.70;;;7.40;99.90;;;;;;5110779;28;20040;-83
2022/10/09 00:23:06;;;;;;;7.28;1.83;;;7.50;99.90;;;;;;5110975;28;20073;-83
2022/10/09 00:25:37;;;;;;;6.03;1.42;;;7.70;99.90;;;;;;5094004;28;20445;-83
2022/10/09 00:28:04;;;;;;;5.55;1.70;;;7.40;99.90;;;;;;5110279;28;20059;-84
2022/10/09 00:30:31;;;;;;;10.20;2.05;;;7.40;99.90;;;;;;5094121;28;20040;-83
2022/10/09 00:32:58;;;;;;;5.50;1.50;;;7.40;99.90;;;;;;5093926;28;20085;-83
2022/10/09 00:35:24;;;;;;;6.82;1.70;;;7.40;99.90;;;;;;5093467;28;20251;-83
2022/10/09 00:37:51;;;;;;;3.97;1.58;;;7.40;99.90;;;;;;5077103;28;20514;-83
2022/10/09 00:40:18;;;;;;;8.23;1.83;;;7.30;99.90;;;;;;5076860;28;20044;-84
2022/10/09 00:42:44;;;;;;;3.88;1.50;;;7.40;99.90;;;;;;5110305;28;20098;-83
2022/10/09 00:45:21;;;;;;;7.68;1.80;;;7.20;99.90;;;;;;5077449;28;20028;-83
2022/10/09 00:47:51;;;;;;;4.45;1.70;;;7.20;99.90;;;;;;5126889;28;20067;-83
2022/10/09 00:50:25;;;;;;;5.50;1.60;;;7.20;99.90;;;;;;5110129;28;20036;-83
2022/10/09 00:52:56;;;;;;;5.75;1.70;;;7.20;99.90;;;;;;5110218;28;20054;-82
2022/10/09 00:55:23;;;;;;;3.78;1.52;;;7.20;99.90;;;;;;5126806;28;20132;-83
2022/10/09 00:57:52;;;;;;;5.20;1.70;;;7.70;99.90;;;;;;5109973;28;20035;-83
2022/10/09 01:00:19;;;;;;;3.33;1.40;;;7.10;99.90;;;;;;5110409;28;20046;-83
2022/10/09 01:02:46;;;;;;;10.43;1.90;;;7.10;99.90;;;;;;5076807;28;20407;-83
2022/10/09 01:05:14;;;;;;;6.95;1.80;;;7.00;99.90;;;;;;5109933;28;20040;-83
2022/10/09 01:07:46;;;;;;;6.47;1.70;;;7.10;99.90;;;;;;5126795;28;20472;-83
2022/10/09 01:10:29;;;;;;;10.90;1.73;;;7.10;99.90;;;;;;5109652;28;20040;-83
2022/10/09 01:13:21;;;;;;;5.75;2.05;;;7.00;99.90;;;;;;5126478;28;20139;-83
2022/10/09 01:15:51;;;;;;;10.20;1.70;;;7.00;99.90;;;;;;5109844;28;20480;-83
2022/10/09 01:18:35;;;;;;;3.95;1.70;;;7.00;99.90;;;;;;5109589;28;20043;-83
2022/10/09 01:21:06;;;;;;;7.38;2.03;;;7.00;99.90;;;;;;5109481;28;20117;-83
2022/10/09 01:23:40;;;;;;;4.05;1.70;;;7.00;99.90;;;;;;5109760;28;20036;-83
2022/10/09 01:26:34;;;;;;;4.15;1.23;;;6.90;99.90;;;;;;5109557;28;20093;-83
2022/10/09 01:29:05;;;;;;;5.57;1.73;;;6.90;99.90;;;;;;5109420;28;20127;-83
2022/10/09 01:31:37;;;;;;;4.18;1.52;;;6.90;99.90;;;;;;5109357;28;20102;-83
2022/10/09 01:34:05;;;;;;;4.05;1.73;;;6.90;99.90;;;;;;5126299;28;20040;-83
2022/10/09 01:36:34;;;;;;;5.55;1.85;;;7.50;99.90;;;;;;5109464;28;20040;-83
2022/10/09 01:39:04;;;;;;;5.97;1.92;;;6.90;99.90;;;;;;5126220;28;20044;-83
2022/10/09 01:41:31;;;;;;;9.05;1.60;;;6.90;99.90;;;;;;5109523;28;20638;-83
2022/10/09 01:43:58;;;;;;;4.07;1.50;;;6.90;99.90;;;;;;5109225;28;20131;-83
2022/10/09 01:46:24;;;;;;;4.57;1.60;;;7.10;99.90;;;;;;5109450;28;20605;-83
2022/10/09 01:49:09;;;;;;;3.60;1.65;;;6.90;99.90;;;;;;5126234;28;20040;-83
2022/10/09 01:51:46;;;;;;;3.60;1.65;;;6.90;99.90;;;;;;5109701;28;20044;-83
2022/10/09 01:54:15;;;;;;;4.57;1.70;;;6.90;99.90;;;;;;5130413;28;20040;-83
2022/10/09 01:56:46;;;;;;;9.13;2.55;;;7.90;99.90;;;;;;5113827;28;20040;-83
2022/10/09 01:59:17;;;;;;;4.85;1.98;;;7.10;99.90;;;;;;5113276;28;20040;-83
2022/10/09 02:01:45;;;;;;;12.00;2.45;;;6.90;99.90;;;;;;5129884;28;20071;-83
2022/10/09 02:04:15;;;;;;;5.38;1.92;;;6.90;99.90;;;;;;5096594;28;20050;-83
2022/10/09 02:06:44;;;;;;;7.57;2.15;;;6.90;99.90;;;;;;5130177;28;20074;-83
2022/10/09 02:09:14;;;;;;;6.55;1.98;;;7.00;99.90;;;;;;5096765;28;20035;-83
2022/10/09 02:11:44;;;;;;;6.72;1.80;;;6.90;99.90;;;;;;5096940;28;20044;-83
2022/10/09 02:14:11;;;;;;;4.78;1.90;;;6.80;99.90;;;;;;5130168;28;20078;-83
2022/10/09 02:16:47;;;;;;;5.15;2.00;;;6.80;99.90;;;;;;5113225;28;20492;-83
2022/10/09 02:19:42;;;;;;;5.57;2.15;;;6.80;99.90;;;;;;5112746;28;20050;-83
2022/10/09 02:22:14;;;;;;;4.22;2.15;;;6.80;99.90;;;;;;5106997;28;20093;-83
2022/10/09 02:24:41;;;;;;;4.65;1.92;;;6.80;99.90;;;;;;5113075;28;20052;-83
2022/10/09 02:27:10;;;;;;;4.65;1.80;;;6.70;99.90;;;;;;5112461;28;20519;-83
2022/10/09 02:29:44;;;;;;;8.82;2.50;;;6.70;99.90;;;;;;5112699;28;20169;-83
2022/10/09 02:32:12;;;;;;;4.78;1.83;;;7.00;99.90;;;;;;5112602;28;20820;-83
2022/10/09 02:34:39;;;;;;;6.68;2.20;;;6.70;99.90;;;;;;5129774;28;20399;-83
2022/10/09 02:37:06;;;;;;;5.75;1.83;;;6.70;99.90;;;;;;5095919;28;20559;-83
2022/10/09 02:39:33;;;;;;;4.70;1.92;;;6.70;99.90;;;;;;5129390;28;20075;-83
2022/10/09 02:42:00;;;;;;;4.05;1.90;;;7.10;99.90;;;;;;5112402;28;20040;-83
2022/10/09 02:44:26;;;;;;;8.32;2.38;;;6.60;99.90;;;;;;5095937;28;20499;-83
2022/10/09 02:46:53;;;;;;;6.93;2.05;;;6.60;99.90;;;;;;5112373;28;20488;-83
2022/10/09 02:49:20;;;;;;;5.38;2.20;;;6.60;99.90;;;;;;5095747;28;20039;-83
2022/10/09 02:51:47;;;;;;;6.47;2.28;;;7.60;99.90;;;;;;5129242;28;20040;-83
2022/10/09 02:54:14;;;;;;;6.55;2.00;;;6.50;99.90;;;;;;5095521;28;20047;-83
2022/10/09 02:56:40;;;;;;;5.93;2.00;;;6.50;99.90;;;;;;5129386;28;20087;-83
2022/10/09 02:59:07;;;;;;;6.53;2.35;;;6.40;99.90;;;;;;5111984;28;20399;-83
2022/10/09 03:01:34;;;;;;;8.70;2.30;;;6.40;99.90;;;;;;5129088;28;20522;-83
2022/10/09 03:04:01;;;;;;;9.02;1.88;;;6.40;99.90;;;;;;5127739;28;20127;-83
2022/10/09 03:06:28;;;;;;;6.55;2.53;;;6.40;99.90;;;;;;5083777;28;20505;-84
2022/10/09 03:08:56;;;;;;;4.53;1.70;;;6.40;99.90;;;;;;5091946;28;20032;-83
2022/10/09 03:11:24;;;;;;;5.43;2.10;;;6.40;99.90;;;;;;5108317;28;20451;-83
2022/10/09 03:13:51;;;;;;;5.88;2.70;;;6.40;99.90;;;;;;5091807;28;20093;-82
2022/10/09 03:16:20;;;;;;;5.47;2.05;;;6.40;99.90;;;;;;5108563;28;20044;-83
2022/10/09 03:18:48;;;;;;;6.30;2.30;;;7.10;99.90;;;;;;5120120;28;20044;-83
2022/10/09 03:21:23;;;;;;;5.90;2.22;;;6.40;99.90;;;;;;5095200;28;20043;-82
2022/10/09 03:23:51;;;;;;;7.03;2.35;;;6.30;99.90;;;;;;5112185;28;20078;-84
2022/10/09 03:26:23;;;;;;;5.65;2.13;;;6.30;99.90;;;;;;5111547;28;20031;-83
2022/10/09 03:28:51;;;;;;;6.50;2.17;;;6.30;99.90;;;;;;5128616;28;20028;-83
2022/10/09 03:31:19;;;;;;;3.65;1.92;;;6.30;99.90;;;;;;5094671;28;20662;-83
2022/10/09 03:33:46;;;;;;;4.40;2.05;;;6.30;99.90;;;;;;5128511;28;20071;-83
2022/10/09 03:36:13;;;;;;;5.32;2.63;;;7.40;99.90;;;;;;5111484;28;20079;-83
2022/10/09 03:38:40;;;;;;;4.47;2.17;;;6.30;99.90;;;;;;5095083;28;20400;-83
2022/10/09 03:41:06;;;;;;;4.22;2.10;;;6.30;99.90;;;;;;5111520;28;20082;-83
2022/10/09 03:43:34;;;;;;;4.90;2.05;;;6.30;99.90;;;;;;5111171;28;20028;-83
2022/10/09 03:46:07;;;;;;;6.30;2.40;;;6.20;99.90;;;;;;5094658;28;20061;-83
2022/10/09 03:48:35;;;;;;;6.60;2.17;;;7.10;99.90;;;;;;5111023;28;20050;-83
2022/10/09 03:51:02;;;;;;;4.18;2.08;;;6.20;99.90;;;;;;5094805;28;20036;-83
2022/10/09 03:53:29;;;;;;;5.57;2.08;;;6.10;99.90;;;;;;5128162;28;20032;-83
2022/10/09 03:55:55;;;;;;;4.47;2.22;;;6.10;99.90;;;;;;5091095;28;20036;-83
2022/10/09 03:58:22;;;;;;;5.88;2.22;;;6.10;99.90;;;;;;5082544;28;20111;-83
2022/10/09 04:00:50;;;;;;;7.65;2.42;;;7.30;99.90;;;;;;5094335;28;20067;-83
2022/10/09 04:03:18;;;;;;;6.53;2.40;;;6.90;99.90;;;;;;5110610;28;20056;-83
2022/10/09 04:05:45;;;;;;;6.13;2.67;;;6.40;99.90;;;;;;5094530;28;20028;-83
2022/10/09 04:08:11;;;;;;;6.43;2.40;;;6.10;99.90;;;;;;5094187;28;20047;-83
2022/10/09 04:10:38;;;;;;;6.55;2.50;;;6.40;99.90;;;;;;5094424;28;20039;-82
2022/10/09 04:13:05;;;;;;;8.77;2.63;;;6.10;99.90;;;;;;5110861;28;20044;-83
2022/10/09 04:15:32;;;;;;;7.57;2.28;;;6.70;99.90;;;;;;5093495;28;20055;-83
2022/10/09 04:17:59;;;;;;;5.40;2.65;;;6.10;99.90;;;;;;5110566;28;20392;-84
2022/10/09 04:20:25;;;;;;;5.22;2.22;;;6.10;99.90;;;;;;5093579;28;20510;-83
2022/10/09 04:22:52;;;;;;;6.32;2.15;;;6.10;99.90;;;;;;5093579;28;20484;-83
2022/10/09 04:25:19;;;;;;;6.55;2.22;;;6.00;99.90;;;;;;5127518;28;20080;-83
2022/10/09 04:27:45;;;;;;;6.07;2.70;;;6.10;99.90;;;;;;5110648;28;20036;-83
2022/10/09 04:30:12;;;;;;;8.13;2.47;;;6.00;99.90;;;;;;5093975;28;20085;-83
2022/10/09 04:32:39;;;;;;;6.10;2.40;;;6.00;99.90;;;;;;5110469;28;20036;-83
2022/10/09 04:35:06;;;;;;;5.53;2.60;;;6.00;99.90;;;;;;5110262;28;20075;-83
2022/10/09 04:37:34;;;;;;;5.95;2.50;;;6.00;99.90;;;;;;5093258;28;20043;-83
2022/10/09 04:40:01;;;;;;;4.38;2.47;;;6.00;99.90;;;;;;5110258;28;20430;-83
2022/10/09 04:42:27;;;;;;;7.97;2.70;;;6.70;99.90;;;;;;5093250;28;20044;-84
2022/10/09 04:44:54;;;;;;;6.13;2.45;;;6.00;99.90;;;;;;5093473;28;20392;-83
2022/10/09 04:47:21;;;;;;;5.85;2.65;;;6.00;99.90;;;;;;5089361;28;20553;-83
2022/10/09 04:49:47;;;;;;;6.20;2.70;;;5.90;99.90;;;;;;5108638;28;20051;-83
2022/10/09 04:52:14;;;;;;;4.95;2.53;;;5.90;99.90;;;;;;5076670;28;20089;-84
2022/10/09 04:54:41;;;;;;;7.78;2.42;;;6.20;99.90;;;;;;5093083;28;20047;-83
2022/10/09 04:57:07;;;;;;;6.20;2.65;;;5.80;99.90;;;;;;5076889;28;20040;-83
2022/10/09 04:59:34;;;;;;;6.32;2.40;;;5.80;99.90;;;;;;5093058;28;20071;-83
2022/10/09 05:02:01;;;;;;;4.07;2.17;;;5.90;99.90;;;;;;5093051;28;20048;-84
2022/10/09 05:04:27;;;;;;;7.78;2.60;;;6.10;99.90;;;;;;5093216;28;20480;-84
2022/10/09 05:06:54;;;;;;;5.70;2.60;;;5.70;99.90;;;;;;5091619;28;20032;-84
2022/10/09 05:09:21;;;;;;;5.38;2.58;;;5.70;99.90;;;;;;5093211;28;20046;-83
2022/10/09 05:11:48;;;;;;;6.03;3.00;;;5.70;99.90;;;;;;5076956;28;20043;-84
2022/10/09 05:14:14;;;;;;;8.90;3.28;;;5.70;99.90;;;;;;5067995;28;20043;-84
2022/10/09 05:16:41;;;;;;;9.15;3.22;;;5.70;99.90;;;;;;5092970;28;20101;-84
2022/10/09 05:19:08;;;;;;;6.25;2.92;;;5.60;99.90;;;;;;5076649;28;20047;-83
2022/10/09 05:21:35;;;;;;;7.72;2.78;;;5.70;99.90;;;;;;5076534;28;20044;-83
2022/10/09 05:24:02;;;;;;;5.82;2.95;;;6.00;99.90;;;;;;5109574;28;20040;-83
2022/10/09 05:26:29;;;;;;;4.95;2.80;;;5.50;99.90;;;;;;5075636;28;20039;-83
2022/10/09 05:28:56;;;;;;;5.25;2.97;;;5.60;99.90;;;;;;5076549;28;20488;-83
2022/10/09 05:31:27;;;;;;;7.07;2.97;;;5.60;99.90;;;;;;5076070;28;20130;-83
2022/10/09 05:33:55;;;;;;;6.32;2.95;;;5.50;99.90;;;;;;5109067;28;20460;-83
2022/10/09 05:36:21;;;;;;;6.15;2.95;;;6.50;99.90;;;;;;5109273;28;20134;-83
2022/10/09 05:38:48;;;;;;;14.57;3.30;;;5.50;99.90;;;;;;5075906;28;20482;-83
2022/10/09 05:41:18;;;;;;;7.97;3.17;;;6.10;99.90;;;;;;5076548;28;20040;-84
2022/10/09 05:43:46;;;;;;;7.82;3.13;;;5.80;99.90;;;;;;5109129;28;20036;-83
2022/10/09 05:46:16;;;;;;;7.53;3.08;;;5.50;99.90;;;;;;5109380;28;20094;-84
2022/10/09 05:48:44;;;;;;;5.03;2.53;;;5.50;99.90;;;;;;5108734;28;20100;-83
2022/10/09 05:51:16;;;;;;;5.55;2.83;;;5.40;99.90;;;;;;5109635;28;20753;-84
2022/10/09 05:53:45;;;;;;;9.23;2.83;;;5.50;99.90;;;;;;5109080;28;20427;-83
2022/10/09 05:56:26;;;;;;;6.85;2.75;;;5.50;99.90;;;;;;5109277;28;20051;-84
2022/10/09 05:58:59;;;;;;;7.00;2.72;;;5.50;99.90;;;;;;5109701;28;20456;-83
2022/10/09 06:01:28;;;;;;;6.80;3.20;;;5.50;99.90;;;;;;5109346;28;20051;-83
2022/10/09 06:03:56;;;;;;;5.95;2.65;;;6.00;99.90;;;;;;5109442;28;20052;-84
2022/10/09 06:06:25;;;;;;;9.35;2.88;;;6.00;99.90;;;;;;5125837;28;20067;-83
2022/10/09 06:08:53;;;;;;;8.48;2.65;;;5.60;99.90;;;;;;5109393;28;20039;-83
2022/10/09 06:11:27;;;;;;;6.72;2.80;;;5.60;99.90;;;;;;5109117;28;20044;-84
2022/10/09 06:13:56;;;;;;;7.70;3.17;;;5.70;99.90;;;;;;5109042;28;20496;-84
2022/10/09 06:16:26;;;;;;;5.00;2.67;;;5.70;99.90;;;;;;5108808;28;20122;-84
2022/10/09 06:18:54;;;;;;;8.43;2.95;;;5.70;99.90;;;;;;5108600;28;20086;-84
2022/10/09 06:21:22;;;;;;;9.00;3.30;;;5.70;99.90;;;;;;5109347;28;20085;-83
2022/10/09 06:23:50;;;;;;;6.30;2.88;;;5.80;99.90;;;;;;5126133;28;20058;-84
2022/10/09 06:26:18;;;;;;;10.65;3.25;;;5.80;99.90;;;;;;5075763;28;20123;-84
2022/10/09 06:28:46;;;;;;;6.80;2.97;;;5.80;99.90;;;;;;5091972;28;20109;-84
2022/10/09 06:31:21;;;;;;;7.28;2.92;;;5.90;99.90;;;;;;5109049;28;20817;-84
2022/10/09 06:33:49;;;;;;;8.20;3.38;;;5.90;99.90;;;;;;5108981;28;20038;-84
2022/10/09 06:36:19;;;;;;;7.82;3.30;;;6.00;99.90;;;;;;5108887;28;20392;-85
2022/10/09 06:38:46;;;;;;;8.00;3.25;;;5.90;99.90;;;;;;5110854;28;20097;-84
2022/10/09 06:41:15;;;;;;;6.40;3.42;;;6.40;99.90;;;;;;5112471;28;20036;-85
2022/10/09 06:43:46;;;;;;;7.68;3.08;;;6.10;99.90;;;;;;5112722;28;20484;-84
2022/10/09 06:46:13;;;;;;;7.95;2.65;;;6.10;99.90;;;;;;5099869;28;20060;-84
2022/10/09 06:48:40;;;;;;;7.03;3.47;;;6.10;99.90;;;;;;5084711;28;20037;-84
2022/10/09 06:51:12;;;;;;;8.52;3.72;;;7.30;99.90;;;;;;5059436;28;20044;-85
2022/10/09 06:53:47;;;;;;;9.43;3.65;;;6.20;99.90;;;;;;5108915;28;20408;-85
2022/10/09 06:56:15;;;;;;;7.70;3.30;;;6.20;99.90;;;;;;5111872;28;20071;-84
2022/10/09 06:58:42;;;;;;;6.28;3.25;;;6.30;99.90;;;;;;5108313;28;20515;-85
2022/10/09 07:01:14;;;;;;;11.82;3.20;;;6.30;99.90;;;;;;5088998;28;20118;-85
2022/10/09 07:03:42;;;;;;;6.97;3.47;;;6.40;99.90;;;;;;5105154;28;20421;-84
2022/10/09 07:06:21;;;;;;;8.40;3.60;;;6.40;99.90;;;;;;5077755;28;20025;-84
2022/10/09 07:08:50;;;;;;;9.90;3.70;;;6.50;99.90;;;;;;5094407;28;20032;-84
2022/10/09 07:11:23;;;;;;;7.57;3.63;;;6.80;99.90;;;;;;5122950;28;20040;-84
2022/10/09 07:13:52;;;;;;;7.75;3.65;;;6.50;99.90;;;;;;5108851;28;20040;-84
2022/10/09 07:16:24;;;;;;;10.38;3.95;;;6.90;99.90;;;;;;5085098;28;20139;-84
2022/10/09 07:18:51;;;;;;;5.97;3.20;;;6.70;99.90;;;;;;5109751;28;20046;-84
2022/10/09 07:21:19;;;;;;;6.78;3.25;;;7.30;99.90;;;;;;5088706;28;20049;-84
2022/10/09 07:23:45;;;;;;;14.32;4.90;;;6.80;99.90;;;;;;5095248;28;20039;-85
2022/10/09 07:26:19;;;;;;;8.30;4.20;;;7.30;99.90;;;;;;5095539;28;20089;-85
2022/10/09 07:28:46;;;;;;;12.85;4.18;;;6.80;99.90;;;;;;5114501;28;20097;-85
2022/10/09 07:31:13;;;;;;;8.50;3.97;;;6.90;99.90;;;;;;5116619;28;20184;-85
2022/10/09 07:33:40;;;;;;;10.25;3.90;;;7.60;99.90;;;;;;5095824;28;20128;-85
2022/10/09 07:36:09;;;;;;;10.35;4.05;;;7.10;99.90;;;;;;5095390;28;20478;-85
2022/10/09 07:38:36;;;;;;;8.88;4.13;;;8.40;99.90;;;;;;5108362;28;20048;-84
2022/10/09 07:41:08;;;;;;;11.50;4.55;;;7.20;99.90;;;;;;5091663;28;20583;-86
2022/10/09 07:43:36;;;;;;;8.82;4.18;;;7.30;99.90;;;;;;5107915;28;20036;-84
2022/10/09 07:46:04;;;;;;;9.65;4.20;;;7.30;99.90;;;;;;5078504;28;20040;-87
2022/10/09 07:48:33;;;;;;;9.60;4.25;;;7.40;99.90;;;;;;5103112;28;20037;-87
2022/10/09 07:51:10;;;;;;;9.38;4.03;;;7.50;99.90;;;;;;5100731;28;20036;-86
2022/10/09 07:53:37;;;;;;;12.43;4.95;;;7.50;99.90;;;;;;5107423;28;20119;-87
2022/10/09 07:56:05;;;;;;;11.50;4.53;;;7.60;99.90;;;;;;5087975;28;20047;-87
2022/10/09 07:58:32;;;;;;;8.52;4.30;;;7.60;99.90;;;;;;5106560;28;20039;-88
2022/10/09 08:01:03;;;;;;;8.85;4.30;;;7.70;99.90;;;;;;5094945;28;20032;-87
2022/10/09 08:03:32;;;;;;;9.55;4.00;;;7.70;99.90;;;;;;5078887;28;20130;-87
2022/10/09 08:05:59;;;;;;;6.88;3.83;;;7.80;99.90;;;;;;5095267;28;20048;-86
2022/10/09 08:08:26;;;;;;;13.68;4.30;;;7.80;99.90;;;;;;5095672;28;20047;-86
2022/10/09 08:10:52;;;;;;;8.88;4.03;;;7.90;99.90;;;;;;5111910;28;20035;-87
2022/10/09 08:13:19;;;;;;;8.77;4.07;;;8.00;99.90;;;;;;5112234;28;20040;-87
2022/10/09 08:15:46;;;;;;;9.23;4.00;;;8.10;99.90;;;;;;5095331;28;20047;-87
2022/10/09 08:18:12;;;;;;;8.70;4.25;;;8.20;99.90;;;;;;5079098;28;20044;-87
2022/10/09 08:20:39;;;;;;;7.90;3.70;;;8.30;99.90;;;;;;5112064;28;20047;-85
2022/10/09 08:23:06;;;;;;;10.60;3.92;;;8.40;99.90;;;;;;5108144;28;20086;-86
2022/10/09 08:25:35;;;;;;;10.60;4.05;;;8.60;99.90;;;;;;5108524;28;20381;-86
2022/10/09 08:28:03;;;;;;;10.35;4.00;;;8.60;99.90;;;;;;5096444;28;20549;-87
2022/10/09 08:30:30;;;;;;;7.97;4.03;;;8.80;99.90;;;;;;5095166;28;20504;-88
2022/10/09 08:32:56;;;;;;;7.53;3.38;;;9.00;99.90;;;;;;5095021;28;20093;-86
2022/10/09 08:35:23;;;;;;;6.78;3.17;;;9.10;99.90;;;;;;5095538;28;20492;-86
2022/10/09 08:37:50;;;;;;;8.00;3.53;;;9.20;99.90;;;;;;5094945;28;20047;-86
2022/10/09 08:40:22;;;;;;;8.20;3.65;;;9.30;99.90;;;;;;5078551;28;20043;-87
2022/10/09 08:43:03;;;;;;;9.75;3.85;;;9.40;99.90;;;;;;5111270;28;20571;-86
2022/10/09 08:45:31;;;;;;;9.38;3.55;;;9.50;99.90;;;;;;5111591;28;20048;-87
2022/10/09 08:48:05;;;;;;;6.28;3.42;;;9.60;99.90;;;;;;5094853;28;20036;-86
2022/10/09 08:50:36;;;;;;;12.43;3.75;;;9.70;99.90;;;;;;5111394;28;20427;-87
2022/10/09 08:53:25;;;;;;;6.68;3.13;;;9.80;99.90;;;;;;5111779;28;20036;-86
2022/10/09 08:55:56;;;;;;;8.55;3.70;;;9.90;99.90;;;;;;5111141;28;20086;-87
2022/10/09 08:58:33;;;;;;;9.90;3.40;;;10.00;99.90;;;;;;5094932;28;20036;-87
2022/10/09 09:01:10;;;;;;;9.95;3.20;;;10.10;99.90;;;;;;5110242;28;20492;-86
2022/10/09 09:04:22;;;;;;;8.93;3.45;;;10.20;99.90;;;;;;5111046;28;20091;-86
2022/10/09 09:07:06;;;;;;;11.10;3.63;;;10.40;99.90;;;;;;5111179;28;20609;-87
2022/10/09 09:09:49;;;;;;;8.15;2.70;;;10.50;99.90;;;;;;5111441;28;20123;-86
2022/10/09 09:12:18;;;;;;;8.23;2.72;;;10.60;99.90;;;;;;5111037;28;20047;-87
2022/10/09 09:15:24;;;;;;;7.68;2.60;;;10.70;99.90;;;;;;5111650;28;20051;-86
2022/10/09 09:17:57;;;;;;;12.25;3.15;;;10.80;99.90;;;;;;5073627;28;20178;-86
2022/10/09 09:20:35;;;;;;;6.15;3.10;;;10.90;99.90;;;;;;5123029;28;20048;-87
2022/10/09 09:23:04;;;;;;;9.25;2.88;;;11.00;99.90;;;;;;5110466;28;20040;-86
2022/10/09 09:25:35;;;;;;;7.22;2.80;;;11.20;99.90;;;;;;5127901;28;20182;-87
2022/10/09 09:28:19;;;;;;;8.07;2.92;;;11.30;99.90;;;;;;5110622;28;20047;-86
2022/10/09 09:30:56;;;;;;;9.30;2.60;;;11.40;99.90;;;;;;5127698;28;20416;-87
2022/10/09 09:33:56;;;;;;;9.52;2.58;;;11.60;99.90;;;;;;5111038;28;20488;-87
2022/10/09 09:36:52;;;;;;;11.73;3.00;;;11.60;99.90;;;;;;5111265;28;20122;-87
2022/10/09 09:39:28;;;;;;;5.47;2.35;;;11.70;99.90;;;;;;5110691;28;20536;-87
2022/10/09 09:41:59;;;;;;;;;;;11.90;99.90;;;;;;5128107;28;20047;-82
2022/10/09 09:44:29;;;;;;;9.52;2.40;;;12.00;99.90;;;;;;5111239;28;19926;-87
2022/10/09 09:46:56;;;;;;;7.50;2.50;;;12.00;99.90;;;;;;5126864;28;20040;-85
2022/10/09 09:49:27;;;;;;;5.72;1.83;;;12.20;99.90;;;;;;5094332;28;20113;-87
2022/10/09 09:51:57;;;;;;;4.18;1.88;;;12.20;99.90;;;;;;5127809;28;20040;-86
2022/10/09 09:54:28;;;;;;;10.35;3.03;;;12.40;99.90;;;;;;5111143;28;20112;-86
2022/10/09 09:56:57;;;;;;;6.63;2.05;;;12.40;99.90;;;;;;5110698;28;20048;-87
2022/10/09 09:59:42;;;;;;;9.88;2.17;;;12.50;99.90;;;;;;5110347;28;20036;-87
2022/10/09 10:02:14;;;;;;;6.00;1.92;;;12.50;99.90;;;;;;5093647;28;20135;-87
2022/10/09 10:05:07;;;;;;;11.20;2.53;;;12.60;99.90;;;;;;5110442;28;20040;-87
2022/10/09 10:07:36;;;;;;;6.22;1.92;;;12.80;99.90;;;;;;5111136;28;20446;-87
2022/10/09 10:10:06;;;;;;;6.05;1.73;;;12.90;99.90;;;;;;5110406;28;20384;-87
2022/10/09 10:12:38;;;;;;;5.68;1.60;;;12.90;99.90;;;;;;5111189;28;20047;-87
2022/10/09 10:15:05;;;;;;;5.97;1.98;;;13.00;99.90;;;;;;5114112;28;20131;-86
2022/10/09 10:17:33;;;;;;;7.68;1.88;;;13.00;99.90;;;;;;5098172;28;20036;-87
2022/10/09 10:20:05;;;;;;;4.63;1.85;;;13.00;99.90;;;;;;5114361;28;20047;-85
2022/10/09 10:22:32;;;;;;;7.25;2.10;;;13.00;99.90;;;;;;5114333;28;20047;-87
2022/10/09 10:24:59;;;;;;;6.85;1.92;;;13.10;99.90;;;;;;5097801;28;20070;-87
2022/10/09 10:27:33;;;;;;;6.88;1.75;;;13.20;99.90;;;;;;5094436;28;20087;-86
2022/10/09 10:30:04;;;;;;;7.28;2.50;;;13.30;99.90;;;;;;5094489;28;20496;-83
2022/10/09 10:33:12;;;;;;;6.43;1.95;;;13.30;99.90;;;;;;5093791;28;20040;-87
2022/10/09 10:35:42;;;;;;;5.25;2.10;;;13.30;99.90;;;;;;5091751;28;20052;-87
2022/10/09 10:38:21;;;;;;;4.55;1.88;;;13.40;99.90;;;;;;5107166;28;20385;-87
2022/10/09 10:41:21;;;;;;;4.32;1.52;;;13.40;99.90;;;;;;5113776;28;20040;-86
2022/10/09 10:43:52;;;;;;;7.90;2.15;;;13.50;99.90;;;;;;5113860;28;20044;-87
2022/10/09 10:46:29;;;;;;;6.07;2.15;;;13.60;99.90;;;;;;5113614;28;20043;-86
2022/10/09 10:48:58;;;;;;;6.47;2.13;;;13.60;99.90;;;;;;5113834;28;20141;-86
2022/10/09 10:51:34;;;;;;;4.93;1.63;;;13.70;99.90;;;;;;5097350;28;20109;-88
2022/10/09 10:54:36;;;;;;;5.25;1.80;;;13.70;99.90;;;;;;5113519;28;20426;-87
2022/10/09 10:57:28;;;;;;;4.47;1.60;;;13.70;99.90;;;;;;5113362;28;20567;-87
2022/10/09 11:00:06;;;;;;;5.72;1.58;;;13.60;99.90;;;;;;5111381;28;20415;-87
2022/10/09 11:03:01;;;;;;;5.55;1.95;;;13.70;99.90;;;;;;5113105;28;20485;-87
2022/10/09 11:05:40;;;;;;;3.57;1.70;;;13.70;99.90;;;;;;5130174;28;20047;-86
2022/10/09 11:08:15;;;;;;;3.35;1.40;;;13.80;99.90;;;;;;5113343;28;20287;-85
2022/10/09 11:10:55;;;;;;;3.65;1.48;;;13.90;99.90;;;;;;5113041;28;20054;-89
2022/10/09 11:13:31;;;;;;;5.82;1.40;;;14.00;99.90;;;;;;5130085;28;20385;-87
2022/10/09 11:16:06;;;;;;;8.60;1.30;;;13.90;99.90;;;;;;5113336;28;20043;-88
2022/10/09 11:18:39;;;;;;;;;;;14.00;99.90;;;;;;5113753;28;20376;-87
2022/10/09 11:21:44;;;;;;;4.82;1.17;;;14.00;99.90;;;;;;5112786;28;19920;-87
2022/10/09 11:24:49;;;;;;;5.78;1.50;;;14.10;99.90;;;;;;5128540;28;20059;-86
2022/10/09 11:27:45;;;;;;;6.85;1.33;;;14.10;99.90;;;;;;5113003;28;20051;-87
2022/10/09 11:30:14;;;;;;;4.80;1.05;;;14.00;99.90;;;;;;5112042;28;20048;-86
2022/10/09 11:33:02;;;;;;;2.65;0.93;;;14.10;99.90;;;;;;5112947;28;20411;-88
2022/10/09 11:35:55;;;;;;;3.83;1.20;;;14.10;99.90;;;;;;5112329;28;20047;-87
2022/10/09 11:38:37;;;;;;;5.38;1.35;;;14.10;99.90;;;;;;5112773;28;20040;-87
2022/10/09 11:41:05;;;;;;;3.72;1.10;;;14.10;99.90;;;;;;5112472;28;20043;-88
2022/10/09 11:43:45;;;;;;;9.50;1.50;;;14.10;99.90;;;;;;5079375;28;20051;-87
2022/10/09 11:46:22;;;;;;;4.22;1.40;;;14.10;99.90;;;;;;5112569;28;20039;-86
2022/10/09 11:49:07;;;;;;;9.82;1.17;;;14.10;99.90;;;;;;5129362;28;20062;-87
2022/10/09 11:51:47;;;;;;;2.75;1.00;;;14.20;99.90;;;;;;5128982;28;20495;-87
2022/10/09 11:54:17;;;;;;;7.32;0.90;;;14.10;99.90;;;;;;5129016;28;20067;-88
2022/10/09 11:57:01;;;;;;;4.97;0.95;;;14.10;99.90;;;;;;5112053;28;20044;-87
2022/10/09 11:59:32;;;;;;;4.80;1.23;;;14.20;99.90;;;;;;5112175;28;20072;-88
2022/10/09 12:02:20;;;;;;;2.97;1.08;;;14.20;99.90;;;;;;5112209;28;20091;-88
2022/10/09 12:04:47;;;;;;;5.38;1.27;;;14.20;99.90;;;;;;5111676;28;20051;-87
2022/10/09 12:07:29;;;;;;;7.60;1.30;;;14.20;99.90;;;;;;5075039;28;20036;-87
2022/10/09 12:10:29;;;;;;;6.65;1.20;;;14.30;99.90;;;;;;5092221;28;20033;-87
2022/10/09 12:13:05;;;;;;;5.20;1.25;;;14.40;99.90;;;;;;5105697;28;20109;-87
2022/10/09 12:15:44;;;;;;;10.05;1.30;;;14.40;99.90;;;;;;5111258;28;20036;-87
2022/10/09 12:18:37;;;;;;;6.22;1.23;;;14.30;99.90;;;;;;5111932;28;20044;-88
2022/10/09 12:21:07;;;;;;;2.65;0.98;;;14.40;99.90;;;;;;5107589;28;20048;-87
2022/10/09 12:23:38;;;;;;;3.95;1.08;;;14.40;99.90;;;;;;5112102;28;20036;-88
2022/10/09 12:26:09;;;;;;;2.60;0.90;;;14.30;99.90;;;;;;5112412;28;20043;-87
2022/10/09 12:28:58;;;;;;;2.05;0.93;;;14.30;99.90;;;;;;5112339;28;20047;-87
2022/10/09 12:31:37;;;;;;;3.60;0.90;;;14.30;99.90;;;;;;5112634;28;20032;-85
2022/10/09 12:34:23;;;;;;;5.80;1.25;;;14.30;99.90;;;;;;5111902;28;20044;-85
2022/10/09 12:36:50;;;;;;;4.70;1.00;;;14.30;99.90;;;;;;5128485;28;20039;-86
2022/10/09 12:39:22;;;;;;;3.17;1.00;;;14.30;99.90;;;;;;5095108;28;20047;-83
2022/10/09 12:41:56;;;;;;;2.90;0.80;;;14.30;99.90;;;;;;5112096;28;20090;-86
2022/10/09 12:44:34;;;;;;;2.20;1.08;;;14.30;99.90;;;;;;5129044;28;20507;-86
2022/10/09 12:47:07;;;;;;;4.25;1.15;;;14.30;99.90;;;;;;5111936;28;20032;-86
2022/10/09 12:49:34;;;;;;;2.53;0.82;;;14.30;99.90;;;;;;5128736;28;20043;-85
2022/10/09 12:52:01;;;;;;;4.32;1.00;;;14.30;99.90;;;;;;5095039;28;20062;-86
2022/10/09 12:54:30;;;;;;;4.47;1.00;;;14.30;99.90;;;;;;5111643;28;20051;-86
2022/10/09 12:56:58;;;;;;;4.35;0.85;;;14.30;99.90;;;;;;5111561;28;20040;-86
2022/10/09 12:59:29;;;;;;;6.13;1.00;;;14.40;99.90;;;;;;5111122;28;20403;-86
2022/10/09 13:01:58;;;;;;;3.30;0.93;;;14.40;99.90;;;;;;5111320;28;20056;-86
2022/10/09 13:04:32;;;;;;;3.78;0.63;;;14.40;99.90;;;;;;5111339;28;20051;-86
2022/10/09 13:07:04;;;;;;;4.78;1.00;;;14.40;99.90;;;;;;5111121;28;20036;-86
2022/10/09 13:09:37;;;;;;;2.05;0.80;;;14.50;99.90;;;;;;5111283;28;20040;-86
2022/10/09 13:12:12;;;;;;;3.83;0.80;;;14.50;99.90;;;;;;5111465;28;20043;-87
2022/10/09 13:14:56;;;;;;;5.53;0.90;;;14.50;99.90;;;;;;5111164;28;20043;-86
2022/10/09 13:17:31;;;;;;;3.10;0.90;;;14.50;99.90;;;;;;5127870;28;20040;-86